sensor_id;sensor_type;location;lat;lon;timestamp;P1;durP1;ratioP1;P2;durP2;ratioP2
8952;SDS011;4511;50.890;8.054;2023-03-05T00:00:43;5.87;;;3.70;;
8952;SDS011;4511;50.890;8.054;2023-03-05T00:03:10;4.47;;;3.20;;
8952;SDS011;4511;50.890;8.054;2023-03-05T00:05:37;8.10;;;3.83;;
8952;SDS011;4511;50.890;8.054;2023-03-05T00:08:06;7.63;;;3.60;;
8952;SDS011;4511;50.890;8.054;2023-03-05T00:10:33;5.27;;;3.40;;
8952;SDS011;4511;50.890;8.054;2023-03-05T00:12:59;4.53;;;3.30;;
8952;SDS011;4511;50.890;8.054;2023-03-05T00:15:26;5.17;;;3.33;;
8952;SDS011;4511;50.890;8.054;2023-03-05T00:17:53;4.17;;;3.53;;
8952;SDS011;4511;50.890;8.054;2023-03-05T00:20:20;3.83;;;3.30;;
8952;SDS011;4511;50.890;8.054;2023-03-05T00:22:46;5.33;;;3.50;;
8952;SDS011;4511;50.890;8.054;2023-03-05T00:25:14;5.10;;;3.57;;
8952;SDS011;4511;50.890;8.054;2023-03-05T00:27:41;7.03;;;3.70;;
8952;SDS011;4511;50.890;8.054;2023-03-05T00:30:09;6.17;;;3.80;;
8952;SDS011;4511;50.890;8.054;2023-03-05T00:32:36;4.53;;;3.67;;
8952;SDS011;4511;50.890;8.054;2023-03-05T00:35:03;7.27;;;3.50;;
8952;SDS011;4511;50.890;8.054;2023-03-05T00:37:31;4.33;;;3.50;;
8952;SDS011;4511;50.890;8.054;2023-03-05T00:39:58;5.23;;;3.60;;
8952;SDS011;4511;50.890;8.054;2023-03-05T00:42:26;7.97;;;3.43;;
8952;SDS011;4511;50.890;8.054;2023-03-05T00:44:53;6.50;;;3.60;;
8952;SDS011;4511;50.890;8.054;2023-03-05T00:47:20;9.53;;;3.83;;
8952;SDS011;4511;50.890;8.054;2023-03-05T00:49:46;6.73;;;3.20;;
8952;SDS011;4511;50.890;8.054;2023-03-05T00:52:13;5.70;;;3.50;;
8952;SDS011;4511;50.890;8.054;2023-03-05T00:54:40;6.10;;;3.90;;
8952;SDS011;4511;50.890;8.054;2023-03-05T00:57:07;5.70;;;3.60;;
8952;SDS011;4511;50.890;8.054;2023-03-05T00:59:35;3.80;;;3.50;;
8952;SDS011;4511;50.890;8.054;2023-03-05T01:02:02;3.97;;;3.57;;
8952;SDS011;4511;50.890;8.054;2023-03-05T01:04:28;4.50;;;3.43;;
8952;SDS011;4511;50.890;8.054;2023-03-05T01:06:55;4.10;;;3.50;;
8952;SDS011;4511;50.890;8.054;2023-03-05T01:09:22;3.50;;;3.10;;
8952;SDS011;4511;50.890;8.054;2023-03-05T01:11:49;4.70;;;3.10;;
8952;SDS011;4511;50.890;8.054;2023-03-05T01:14:17;4.20;;;3.23;;
8952;SDS011;4511;50.890;8.054;2023-03-05T01:16:46;3.23;;;2.93;;
8952;SDS011;4511;50.890;8.054;2023-03-05T01:19:13;6.03;;;3.10;;
8952;SDS011;4511;50.890;8.054;2023-03-05T01:21:40;4.47;;;3.17;;
8952;SDS011;4511;50.890;8.054;2023-03-05T01:24:07;3.03;;;2.80;;
8952;SDS011;4511;50.890;8.054;2023-03-05T01:26:34;6.10;;;3.20;;
8952;SDS011;4511;50.890;8.054;2023-03-05T01:29:01;3.13;;;2.93;;
8952;SDS011;4511;50.890;8.054;2023-03-05T01:31:28;3.53;;;3.00;;
8952;SDS011;4511;50.890;8.054;2023-03-05T01:33:56;4.07;;;3.10;;
8952;SDS011;4511;50.890;8.054;2023-03-05T01:36:24;4.33;;;3.20;;
8952;SDS011;4511;50.890;8.054;2023-03-05T01:38:51;4.10;;;3.00;;
8952;SDS011;4511;50.890;8.054;2023-03-05T01:41:18;3.10;;;2.70;;
8952;SDS011;4511;50.890;8.054;2023-03-05T01:43:46;3.03;;;2.87;;
8952;SDS011;4511;50.890;8.054;2023-03-05T01:49:05;4.13;;;3.07;;
8952;SDS011;4511;50.890;8.054;2023-03-05T01:51:36;3.13;;;2.70;;
8952;SDS011;4511;50.890;8.054;2023-03-05T01:54:06;2.90;;;2.70;;
8952;SDS011;4511;50.890;8.054;2023-03-05T01:56:35;3.67;;;2.47;;
8952;SDS011;4511;50.890;8.054;2023-03-05T01:59:04;3.47;;;2.40;;
8952;SDS011;4511;50.890;8.054;2023-03-05T02:01:32;2.90;;;2.70;;
8952;SDS011;4511;50.890;8.054;2023-03-05T02:04:05;3.20;;;2.60;;
8952;SDS011;4511;50.890;8.054;2023-03-05T02:06:33;3.10;;;2.80;;
8952;SDS011;4511;50.890;8.054;2023-03-05T02:09:00;3.80;;;3.00;;
8952;SDS011;4511;50.890;8.054;2023-03-05T02:11:27;2.80;;;2.60;;
8952;SDS011;4511;50.890;8.054;2023-03-05T02:13:54;2.90;;;2.70;;
8952;SDS011;4511;50.890;8.054;2023-03-05T02:16:22;2.97;;;2.60;;
8952;SDS011;4511;50.890;8.054;2023-03-05T02:18:49;3.20;;;3.00;;
8952;SDS011;4511;50.890;8.054;2023-03-05T02:21:23;5.93;;;2.70;;
8952;SDS011;4511;50.890;8.054;2023-03-05T02:23:53;3.00;;;2.80;;
8952;SDS011;4511;50.890;8.054;2023-03-05T02:26:20;4.40;;;2.50;;
8952;SDS011;4511;50.890;8.054;2023-03-05T02:28:48;4.23;;;2.60;;
8952;SDS011;4511;50.890;8.054;2023-03-05T02:31:20;3.77;;;2.63;;
8952;SDS011;4511;50.890;8.054;2023-03-05T02:33:48;2.80;;;2.60;;
8952;SDS011;4511;50.890;8.054;2023-03-05T02:36:15;2.90;;;2.67;;
8952;SDS011;4511;50.890;8.054;2023-03-05T02:38:44;3.70;;;2.90;;
8952;SDS011;4511;50.890;8.054;2023-03-05T02:41:12;4.77;;;2.80;;
8952;SDS011;4511;50.890;8.054;2023-03-05T02:43:39;3.07;;;2.83;;
8952;SDS011;4511;50.890;8.054;2023-03-05T02:46:06;4.10;;;2.80;;
8952;SDS011;4511;50.890;8.054;2023-03-05T02:48:33;3.17;;;2.50;;
8952;SDS011;4511;50.890;8.054;2023-03-05T02:51:01;3.70;;;2.70;;
8952;SDS011;4511;50.890;8.054;2023-03-05T02:53:29;2.93;;;2.73;;
8952;SDS011;4511;50.890;8.054;2023-03-05T02:55:57;2.70;;;2.50;;
8952;SDS011;4511;50.890;8.054;2023-03-05T02:58:24;4.73;;;2.70;;
8952;SDS011;4511;50.890;8.054;2023-03-05T03:00:51;2.70;;;2.50;;
8952;SDS011;4511;50.890;8.054;2023-03-05T03:03:18;4.20;;;2.80;;
8952;SDS011;4511;50.890;8.054;2023-03-05T03:05:45;3.33;;;2.83;;
8952;SDS011;4511;50.890;8.054;2023-03-05T03:08:11;3.23;;;2.90;;
8952;SDS011;4511;50.890;8.054;2023-03-05T03:10:39;3.33;;;2.70;;
8952;SDS011;4511;50.890;8.054;2023-03-05T03:13:07;3.73;;;2.83;;
8952;SDS011;4511;50.890;8.054;2023-03-05T03:15:34;3.63;;;2.80;;
8952;SDS011;4511;50.890;8.054;2023-03-05T03:18:02;3.80;;;2.60;;
8952;SDS011;4511;50.890;8.054;2023-03-05T03:20:29;4.73;;;2.87;;
8952;SDS011;4511;50.890;8.054;2023-03-05T03:22:56;3.57;;;2.80;;
8952;SDS011;4511;50.890;8.054;2023-03-05T03:25:23;3.00;;;2.80;;
8952;SDS011;4511;50.890;8.054;2023-03-05T03:27:51;4.60;;;2.80;;
8952;SDS011;4511;50.890;8.054;2023-03-05T03:30:19;2.73;;;2.60;;
8952;SDS011;4511;50.890;8.054;2023-03-05T03:32:46;3.00;;;2.77;;
8952;SDS011;4511;50.890;8.054;2023-03-05T03:35:13;4.10;;;2.87;;
8952;SDS011;4511;50.890;8.054;2023-03-05T03:37:40;3.77;;;2.80;;
8952;SDS011;4511;50.890;8.054;2023-03-05T03:40:07;3.47;;;3.00;;
8952;SDS011;4511;50.890;8.054;2023-03-05T03:42:36;4.67;;;3.10;;
8952;SDS011;4511;50.890;8.054;2023-03-05T03:45:03;6.20;;;3.20;;
8952;SDS011;4511;50.890;8.054;2023-03-05T03:47:31;3.70;;;2.73;;
8952;SDS011;4511;50.890;8.054;2023-03-05T03:49:58;3.27;;;2.97;;
8952;SDS011;4511;50.890;8.054;2023-03-05T03:52:25;4.67;;;3.40;;
8952;SDS011;4511;50.890;8.054;2023-03-05T03:54:52;3.20;;;3.00;;
8952;SDS011;4511;50.890;8.054;2023-03-05T03:57:25;5.10;;;3.00;;
8952;SDS011;4511;50.890;8.054;2023-03-05T03:59:52;4.30;;;3.37;;
8952;SDS011;4511;50.890;8.054;2023-03-05T04:02:19;6.93;;;3.60;;
8952;SDS011;4511;50.890;8.054;2023-03-05T04:04:47;4.20;;;3.33;;
8952;SDS011;4511;50.890;8.054;2023-03-05T04:07:14;5.33;;;3.80;;
8952;SDS011;4511;50.890;8.054;2023-03-05T04:09:40;7.60;;;4.23;;
8952;SDS011;4511;50.890;8.054;2023-03-05T04:12:07;4.37;;;3.73;;
8952;SDS011;4511;50.890;8.054;2023-03-05T04:14:34;8.53;;;4.30;;
8952;SDS011;4511;50.890;8.054;2023-03-05T04:17:01;9.87;;;4.50;;
8952;SDS011;4511;50.890;8.054;2023-03-05T04:19:29;5.83;;;4.10;;
8952;SDS011;4511;50.890;8.054;2023-03-05T04:21:57;6.47;;;3.90;;
8952;SDS011;4511;50.890;8.054;2023-03-05T04:24:24;7.07;;;4.10;;
8952;SDS011;4511;50.890;8.054;2023-03-05T04:26:51;6.80;;;3.80;;
8952;SDS011;4511;50.890;8.054;2023-03-05T04:29:18;5.67;;;4.13;;
8952;SDS011;4511;50.890;8.054;2023-03-05T04:31:45;9.37;;;4.03;;
8952;SDS011;4511;50.890;8.054;2023-03-05T04:34:12;5.53;;;4.20;;
8952;SDS011;4511;50.890;8.054;2023-03-05T04:36:39;7.00;;;3.90;;
8952;SDS011;4511;50.890;8.054;2023-03-05T04:39:07;4.43;;;4.00;;
8952;SDS011;4511;50.890;8.054;2023-03-05T04:41:34;7.50;;;4.13;;
8952;SDS011;4511;50.890;8.054;2023-03-05T04:44:00;4.50;;;4.07;;
8952;SDS011;4511;50.890;8.054;2023-03-05T04:46:27;6.13;;;4.10;;
8952;SDS011;4511;50.890;8.054;2023-03-05T04:48:54;6.63;;;4.47;;
8952;SDS011;4511;50.890;8.054;2023-03-05T04:51:22;4.87;;;4.20;;
8952;SDS011;4511;50.890;8.054;2023-03-05T04:53:49;7.43;;;4.47;;
8952;SDS011;4511;50.890;8.054;2023-03-05T04:56:17;5.67;;;4.60;;
8952;SDS011;4511;50.890;8.054;2023-03-05T04:58:43;6.00;;;4.33;;
8952;SDS011;4511;50.890;8.054;2023-03-05T05:01:10;6.43;;;4.60;;
8952;SDS011;4511;50.890;8.054;2023-03-05T05:03:37;7.37;;;4.37;;
8952;SDS011;4511;50.890;8.054;2023-03-05T05:06:04;6.80;;;4.80;;
8952;SDS011;4511;50.890;8.054;2023-03-05T05:08:31;9.67;;;4.97;;
8952;SDS011;4511;50.890;8.054;2023-03-05T05:10:59;5.70;;;4.93;;
8952;SDS011;4511;50.890;8.054;2023-03-05T05:13:28;6.87;;;4.70;;
8952;SDS011;4511;50.890;8.054;2023-03-05T05:15:55;10.00;;;5.57;;
8952;SDS011;4511;50.890;8.054;2023-03-05T05:18:23;9.63;;;5.10;;
8952;SDS011;4511;50.890;8.054;2023-03-05T05:20:51;8.43;;;5.80;;
8952;SDS011;4511;50.890;8.054;2023-03-05T05:23:18;10.57;;;5.80;;
8952;SDS011;4511;50.890;8.054;2023-03-05T05:25:45;8.03;;;5.87;;
8952;SDS011;4511;50.890;8.054;2023-03-05T05:28:20;7.43;;;6.23;;
8952;SDS011;4511;50.890;8.054;2023-03-05T05:30:48;8.07;;;5.70;;
8952;SDS011;4511;50.890;8.054;2023-03-05T05:33:15;10.50;;;5.60;;
8952;SDS011;4511;50.890;8.054;2023-03-05T05:35:41;9.80;;;5.73;;
8952;SDS011;4511;50.890;8.054;2023-03-05T05:38:08;9.20;;;6.20;;
8952;SDS011;4511;50.890;8.054;2023-03-05T05:40:35;9.53;;;5.90;;
8952;SDS011;4511;50.890;8.054;2023-03-05T05:43:01;7.87;;;5.60;;
8952;SDS011;4511;50.890;8.054;2023-03-05T05:45:28;9.33;;;5.57;;
8952;SDS011;4511;50.890;8.054;2023-03-05T05:47:56;9.80;;;5.83;;
8952;SDS011;4511;50.890;8.054;2023-03-05T05:50:23;8.57;;;5.40;;
8952;SDS011;4511;50.890;8.054;2023-03-05T05:52:51;5.33;;;4.40;;
8952;SDS011;4511;50.890;8.054;2023-03-05T05:55:18;6.10;;;4.93;;
8952;SDS011;4511;50.890;8.054;2023-03-05T05:57:44;5.07;;;4.40;;
8952;SDS011;4511;50.890;8.054;2023-03-05T06:00:12;4.10;;;3.63;;
8952;SDS011;4511;50.890;8.054;2023-03-05T06:02:39;3.70;;;3.40;;
8952;SDS011;4511;50.890;8.054;2023-03-05T06:05:09;5.10;;;3.40;;
8952;SDS011;4511;50.890;8.054;2023-03-05T06:07:37;5.30;;;3.70;;
8952;SDS011;4511;50.890;8.054;2023-03-05T06:10:04;5.00;;;3.83;;
8952;SDS011;4511;50.890;8.054;2023-03-05T06:12:32;4.73;;;4.10;;
8952;SDS011;4511;50.890;8.054;2023-03-05T06:14:59;5.07;;;4.13;;
8952;SDS011;4511;50.890;8.054;2023-03-05T06:17:26;4.97;;;4.20;;
8952;SDS011;4511;50.890;8.054;2023-03-05T06:19:53;5.60;;;4.63;;
8952;SDS011;4511;50.890;8.054;2023-03-05T06:22:21;6.43;;;4.40;;
8952;SDS011;4511;50.890;8.054;2023-03-05T06:24:48;8.80;;;4.43;;
8952;SDS011;4511;50.890;8.054;2023-03-05T06:27:16;5.13;;;4.60;;
8952;SDS011;4511;50.890;8.054;2023-03-05T06:29:43;5.80;;;4.37;;
8952;SDS011;4511;50.890;8.054;2023-03-05T06:32:09;5.07;;;3.87;;
8952;SDS011;4511;50.890;8.054;2023-03-05T06:34:36;4.67;;;3.90;;
8952;SDS011;4511;50.890;8.054;2023-03-05T06:37:03;4.60;;;4.20;;
8952;SDS011;4511;50.890;8.054;2023-03-05T06:39:31;4.73;;;4.23;;
8952;SDS011;4511;50.890;8.054;2023-03-05T06:41:58;4.37;;;3.97;;
8952;SDS011;4511;50.890;8.054;2023-03-05T06:44:25;6.90;;;4.90;;
8952;SDS011;4511;50.890;8.054;2023-03-05T06:46:51;6.93;;;4.83;;
8952;SDS011;4511;50.890;8.054;2023-03-05T06:49:18;5.57;;;5.00;;
8952;SDS011;4511;50.890;8.054;2023-03-05T06:51:45;5.67;;;4.87;;
8952;SDS011;4511;50.890;8.054;2023-03-05T06:54:13;5.43;;;4.73;;
8952;SDS011;4511;50.890;8.054;2023-03-05T06:56:43;9.57;;;5.80;;
8952;SDS011;4511;50.890;8.054;2023-03-05T06:59:11;7.53;;;5.33;;
8952;SDS011;4511;50.890;8.054;2023-03-05T07:01:39;9.10;;;6.50;;
8952;SDS011;4511;50.890;8.054;2023-03-05T07:04:07;8.23;;;6.40;;
8952;SDS011;4511;50.890;8.054;2023-03-05T07:06:34;13.27;;;7.67;;
8952;SDS011;4511;50.890;8.054;2023-03-05T07:09:03;8.97;;;7.30;;
8952;SDS011;4511;50.890;8.054;2023-03-05T07:11:31;12.40;;;7.57;;
8952;SDS011;4511;50.890;8.054;2023-03-05T07:14:00;11.77;;;7.93;;
8952;SDS011;4511;50.890;8.054;2023-03-05T07:16:28;16.23;;;9.17;;
8952;SDS011;4511;50.890;8.054;2023-03-05T07:18:56;14.73;;;10.23;;
8952;SDS011;4511;50.890;8.054;2023-03-05T07:21:27;16.73;;;10.93;;
8952;SDS011;4511;50.890;8.054;2023-03-05T07:23:55;16.53;;;10.83;;
8952;SDS011;4511;50.890;8.054;2023-03-05T07:26:24;17.20;;;11.13;;
8952;SDS011;4511;50.890;8.054;2023-03-05T07:28:51;18.43;;;11.60;;
8952;SDS011;4511;50.890;8.054;2023-03-05T07:31:20;17.73;;;12.73;;
8952;SDS011;4511;50.890;8.054;2023-03-05T07:33:51;20.63;;;13.70;;
8952;SDS011;4511;50.890;8.054;2023-03-05T07:36:18;24.93;;;14.73;;
8952;SDS011;4511;50.890;8.054;2023-03-05T07:38:45;23.63;;;14.37;;
8952;SDS011;4511;50.890;8.054;2023-03-05T07:41:12;22.43;;;14.40;;
8952;SDS011;4511;50.890;8.054;2023-03-05T07:43:43;23.10;;;13.57;;
8952;SDS011;4511;50.890;8.054;2023-03-05T07:46:12;24.50;;;13.80;;
8952;SDS011;4511;50.890;8.054;2023-03-05T07:48:42;26.63;;;13.60;;
8952;SDS011;4511;50.890;8.054;2023-03-05T07:51:10;25.13;;;13.70;;
8952;SDS011;4511;50.890;8.054;2023-03-05T07:53:39;20.00;;;12.67;;
8952;SDS011;4511;50.890;8.054;2023-03-05T07:56:07;21.17;;;11.90;;
8952;SDS011;4511;50.890;8.054;2023-03-05T07:58:34;17.73;;;11.43;;
8952;SDS011;4511;50.890;8.054;2023-03-05T08:01:01;18.20;;;11.70;;
8952;SDS011;4511;50.890;8.054;2023-03-05T08:03:28;19.53;;;11.97;;
8952;SDS011;4511;50.890;8.054;2023-03-05T08:05:56;15.70;;;9.90;;
8952;SDS011;4511;50.890;8.054;2023-03-05T08:08:22;14.77;;;9.50;;
8952;SDS011;4511;50.890;8.054;2023-03-05T08:10:49;14.40;;;10.00;;
8952;SDS011;4511;50.890;8.054;2023-03-05T08:13:16;15.00;;;9.63;;
8952;SDS011;4511;50.890;8.054;2023-03-05T08:15:43;18.20;;;9.90;;
8952;SDS011;4511;50.890;8.054;2023-03-05T08:18:10;17.67;;;9.53;;
8952;SDS011;4511;50.890;8.054;2023-03-05T08:20:38;14.00;;;9.00;;
8952;SDS011;4511;50.890;8.054;2023-03-05T08:23:06;13.43;;;8.00;;
8952;SDS011;4511;50.890;8.054;2023-03-05T08:25:32;12.27;;;7.83;;
8952;SDS011;4511;50.890;8.054;2023-03-05T08:27:59;10.97;;;7.67;;
8952;SDS011;4511;50.890;8.054;2023-03-05T08:30:26;14.00;;;7.47;;
8952;SDS011;4511;50.890;8.054;2023-03-05T08:32:53;12.57;;;7.47;;
8952;SDS011;4511;50.890;8.054;2023-03-05T08:35:21;12.30;;;7.03;;
8952;SDS011;4511;50.890;8.054;2023-03-05T08:37:48;11.43;;;7.30;;
8952;SDS011;4511;50.890;8.054;2023-03-05T08:40:16;12.20;;;7.17;;
8952;SDS011;4511;50.890;8.054;2023-03-05T08:42:44;9.67;;;6.60;;
8952;SDS011;4511;50.890;8.054;2023-03-05T08:45:11;8.17;;;6.23;;
8952;SDS011;4511;50.890;8.054;2023-03-05T08:47:38;11.90;;;6.80;;
8952;SDS011;4511;50.890;8.054;2023-03-05T08:50:05;10.90;;;6.90;;
8952;SDS011;4511;50.890;8.054;2023-03-05T08:52:32;8.97;;;5.43;;
8952;SDS011;4511;50.890;8.054;2023-03-05T08:54:59;5.77;;;4.93;;
8952;SDS011;4511;50.890;8.054;2023-03-05T08:57:27;7.63;;;5.03;;
8952;SDS011;4511;50.890;8.054;2023-03-05T08:59:54;5.87;;;4.53;;
8952;SDS011;4511;50.890;8.054;2023-03-05T09:02:21;5.70;;;5.10;;
8952;SDS011;4511;50.890;8.054;2023-03-05T09:04:48;7.23;;;4.70;;
8952;SDS011;4511;50.890;8.054;2023-03-05T09:07:14;7.67;;;4.27;;
8952;SDS011;4511;50.890;8.054;2023-03-05T09:09:41;5.10;;;4.60;;
8952;SDS011;4511;50.890;8.054;2023-03-05T09:12:08;8.20;;;5.00;;
8952;SDS011;4511;50.890;8.054;2023-03-05T09:14:38;5.20;;;4.70;;
8952;SDS011;4511;50.890;8.054;2023-03-05T09:17:06;6.63;;;4.60;;
8952;SDS011;4511;50.890;8.054;2023-03-05T09:19:33;5.87;;;4.20;;
8952;SDS011;4511;50.890;8.054;2023-03-05T09:22:00;4.77;;;4.20;;
8952;SDS011;4511;50.890;8.054;2023-03-05T09:24:27;4.70;;;4.30;;
8952;SDS011;4511;50.890;8.054;2023-03-05T09:26:56;4.40;;;3.90;;
8952;SDS011;4511;50.890;8.054;2023-03-05T09:29:23;5.10;;;4.00;;
8952;SDS011;4511;50.890;8.054;2023-03-05T09:31:52;7.07;;;4.50;;
8952;SDS011;4511;50.890;8.054;2023-03-05T09:34:19;4.77;;;4.27;;
8952;SDS011;4511;50.890;8.054;2023-03-05T09:36:46;4.87;;;4.00;;
8952;SDS011;4511;50.890;8.054;2023-03-05T09:39:13;6.77;;;4.10;;
8952;SDS011;4511;50.890;8.054;2023-03-05T09:41:47;8.20;;;4.00;;
8952;SDS011;4511;50.890;8.054;2023-03-05T09:44:30;4.73;;;3.90;;
8952;SDS011;4511;50.890;8.054;2023-03-05T09:47:11;5.77;;;5.00;;
8952;SDS011;4511;50.890;8.054;2023-03-05T09:49:52;5.97;;;5.20;;
8952;SDS011;4511;50.890;8.054;2023-03-05T09:52:27;6.83;;;5.20;;
8952;SDS011;4511;50.890;8.054;2023-03-05T09:55:02;6.00;;;5.40;;
8952;SDS011;4511;50.890;8.054;2023-03-05T09:57:38;5.93;;;5.40;;
8952;SDS011;4511;50.890;8.054;2023-03-05T10:00:10;6.50;;;5.90;;
8952;SDS011;4511;50.890;8.054;2023-03-05T10:02:52;7.63;;;6.43;;
8952;SDS011;4511;50.890;8.054;2023-03-05T10:05:23;7.20;;;6.27;;
8952;SDS011;4511;50.890;8.054;2023-03-05T10:07:56;8.00;;;6.70;;
8952;SDS011;4511;50.890;8.054;2023-03-05T10:10:26;7.53;;;6.83;;
8952;SDS011;4511;50.890;8.054;2023-03-05T10:13:00;8.13;;;6.80;;
8952;SDS011;4511;50.890;8.054;2023-03-05T10:15:36;7.03;;;6.20;;
8952;SDS011;4511;50.890;8.054;2023-03-05T10:18:14;8.20;;;6.77;;
8952;SDS011;4511;50.890;8.054;2023-03-05T10:20:50;6.90;;;6.20;;
8952;SDS011;4511;50.890;8.054;2023-03-05T10:23:24;7.10;;;6.40;;
8952;SDS011;4511;50.890;8.054;2023-03-05T10:25:59;7.00;;;6.37;;
8952;SDS011;4511;50.890;8.054;2023-03-05T10:28:34;9.13;;;6.53;;
8952;SDS011;4511;50.890;8.054;2023-03-05T10:31:10;7.90;;;5.90;;
8952;SDS011;4511;50.890;8.054;2023-03-05T10:34:00;7.47;;;5.63;;
8952;SDS011;4511;50.890;8.054;2023-03-05T10:36:51;6.13;;;5.30;;
8952;SDS011;4511;50.890;8.054;2023-03-05T10:39:42;6.20;;;5.60;;
8952;SDS011;4511;50.890;8.054;2023-03-05T10:42:19;6.07;;;5.47;;
8952;SDS011;4511;50.890;8.054;2023-03-05T10:44:53;7.83;;;5.40;;
8952;SDS011;4511;50.890;8.054;2023-03-05T10:47:23;5.77;;;5.27;;
8952;SDS011;4511;50.890;8.054;2023-03-05T10:49:55;5.20;;;4.80;;
8952;SDS011;4511;50.890;8.054;2023-03-05T10:52:24;6.93;;;5.40;;
8952;SDS011;4511;50.890;8.054;2023-03-05T10:54:55;7.40;;;5.70;;
8952;SDS011;4511;50.890;8.054;2023-03-05T10:57:23;6.90;;;5.30;;
8952;SDS011;4511;50.890;8.054;2023-03-05T10:59:51;7.77;;;5.60;;
8952;SDS011;4511;50.890;8.054;2023-03-05T11:02:19;10.17;;;5.30;;
8952;SDS011;4511;50.890;8.054;2023-03-05T11:04:47;6.27;;;5.00;;
8952;SDS011;4511;50.890;8.054;2023-03-05T11:07:37;6.40;;;5.33;;
8952;SDS011;4511;50.890;8.054;2023-03-05T11:10:14;6.13;;;5.43;;
8952;SDS011;4511;50.890;8.054;2023-03-05T11:12:43;7.17;;;5.07;;
8952;SDS011;4511;50.890;8.054;2023-03-05T11:15:22;7.47;;;5.60;;
8952;SDS011;4511;50.890;8.054;2023-03-05T11:18:03;8.53;;;5.50;;
8952;SDS011;4511;50.890;8.054;2023-03-05T11:20:33;5.63;;;5.13;;
8952;SDS011;4511;50.890;8.054;2023-03-05T11:23:03;5.93;;;5.37;;
8952;SDS011;4511;50.890;8.054;2023-03-05T11:25:34;5.33;;;4.83;;
8952;SDS011;4511;50.890;8.054;2023-03-05T11:28:16;5.90;;;5.30;;
8952;SDS011;4511;50.890;8.054;2023-03-05T11:30:45;6.30;;;4.80;;
8952;SDS011;4511;50.890;8.054;2023-03-05T11:33:21;6.73;;;5.17;;
8952;SDS011;4511;50.890;8.054;2023-03-05T11:35:50;6.43;;;5.50;;
8952;SDS011;4511;50.890;8.054;2023-03-05T11:38:21;8.97;;;5.53;;
8952;SDS011;4511;50.890;8.054;2023-03-05T11:40:50;6.00;;;5.40;;
8952;SDS011;4511;50.890;8.054;2023-03-05T11:43:19;7.60;;;5.47;;
8952;SDS011;4511;50.890;8.054;2023-03-05T11:45:49;10.53;;;5.83;;
8952;SDS011;4511;50.890;8.054;2023-03-05T11:48:19;7.87;;;5.50;;
8952;SDS011;4511;50.890;8.054;2023-03-05T11:50:50;9.47;;;5.90;;
8952;SDS011;4511;50.890;8.054;2023-03-05T11:53:22;10.53;;;5.90;;
8952;SDS011;4511;50.890;8.054;2023-03-05T11:55:53;6.53;;;5.80;;
8952;SDS011;4511;50.890;8.054;2023-03-05T11:58:26;8.37;;;6.17;;
8952;SDS011;4511;50.890;8.054;2023-03-05T12:00:56;9.40;;;6.20;;
8952;SDS011;4511;50.890;8.054;2023-03-05T12:03:26;11.27;;;6.87;;
8952;SDS011;4511;50.890;8.054;2023-03-05T12:05:57;8.60;;;6.40;;
8952;SDS011;4511;50.890;8.054;2023-03-05T12:08:31;9.13;;;6.80;;
8952;SDS011;4511;50.890;8.054;2023-03-05T12:11:02;7.50;;;6.70;;
8952;SDS011;4511;50.890;8.054;2023-03-05T12:13:32;9.47;;;6.93;;
8952;SDS011;4511;50.890;8.054;2023-03-05T12:16:04;13.37;;;7.47;;
8952;SDS011;4511;50.890;8.054;2023-03-05T12:18:39;9.17;;;6.60;;
8952;SDS011;4511;50.890;8.054;2023-03-05T12:21:15;10.23;;;6.77;;
8952;SDS011;4511;50.890;8.054;2023-03-05T12:23:53;8.30;;;6.60;;
8952;SDS011;4511;50.890;8.054;2023-03-05T12:29:29;9.60;;;7.53;;
8952;SDS011;4511;50.890;8.054;2023-03-05T12:32:03;9.27;;;6.30;;
8952;SDS011;4511;50.890;8.054;2023-03-05T12:40:24;7.00;;;6.10;;
8952;SDS011;4511;50.890;8.054;2023-03-05T12:42:53;8.37;;;6.90;;
8952;SDS011;4511;50.890;8.054;2023-03-05T12:45:22;7.13;;;6.17;;
8952;SDS011;4511;50.890;8.054;2023-03-05T12:50:50;7.13;;;6.43;;
8952;SDS011;4511;50.890;8.054;2023-03-05T12:53:23;6.90;;;6.20;;
8952;SDS011;4511;50.890;8.054;2023-03-05T12:55:55;6.40;;;5.80;;
8952;SDS011;4511;50.890;8.054;2023-03-05T12:58:32;7.50;;;6.00;;
8952;SDS011;4511;50.890;8.054;2023-03-05T13:01:06;6.83;;;5.93;;
8952;SDS011;4511;50.890;8.054;2023-03-05T13:03:44;7.73;;;5.90;;
8952;SDS011;4511;50.890;8.054;2023-03-05T13:06:24;7.43;;;5.83;;
8952;SDS011;4511;50.890;8.054;2023-03-05T13:08:58;7.47;;;6.03;;
8952;SDS011;4511;50.890;8.054;2023-03-05T13:11:29;9.10;;;6.00;;
8952;SDS011;4511;50.890;8.054;2023-03-05T13:13:58;8.53;;;6.60;;
8952;SDS011;4511;50.890;8.054;2023-03-05T13:16:27;8.37;;;7.57;;
8952;SDS011;4511;50.890;8.054;2023-03-05T13:18:57;9.33;;;7.10;;
8952;SDS011;4511;50.890;8.054;2023-03-05T13:21:27;9.20;;;7.20;;
8952;SDS011;4511;50.890;8.054;2023-03-05T13:23:55;10.17;;;7.60;;
8952;SDS011;4511;50.890;8.054;2023-03-05T13:26:24;8.07;;;6.93;;
8952;SDS011;4511;50.890;8.054;2023-03-05T13:29:11;7.60;;;6.90;;
8952;SDS011;4511;50.890;8.054;2023-03-05T13:31:41;10.30;;;7.80;;
8952;SDS011;4511;50.890;8.054;2023-03-05T13:34:12;9.10;;;7.90;;
8952;SDS011;4511;50.890;8.054;2023-03-05T13:36:46;8.60;;;7.30;;
8952;SDS011;4511;50.890;8.054;2023-03-05T13:39:20;8.47;;;7.53;;
8952;SDS011;4511;50.890;8.054;2023-03-05T13:41:58;8.07;;;7.33;;
8952;SDS011;4511;50.890;8.054;2023-03-05T13:44:28;8.60;;;7.80;;
8952;SDS011;4511;50.890;8.054;2023-03-05T13:47:06;8.63;;;7.67;;
8952;SDS011;4511;50.890;8.054;2023-03-05T13:49:35;8.87;;;7.80;;
8952;SDS011;4511;50.890;8.054;2023-03-05T13:52:01;7.70;;;7.00;;
8952;SDS011;4511;50.890;8.054;2023-03-05T13:54:30;8.80;;;7.90;;
8952;SDS011;4511;50.890;8.054;2023-03-05T13:56:58;8.63;;;7.30;;
8952;SDS011;4511;50.890;8.054;2023-03-05T13:59:28;9.67;;;8.10;;
8952;SDS011;4511;50.890;8.054;2023-03-05T14:01:56;10.57;;;7.90;;
8952;SDS011;4511;50.890;8.054;2023-03-05T14:04:25;8.73;;;7.83;;
8952;SDS011;4511;50.890;8.054;2023-03-05T14:06:55;7.90;;;7.20;;
8952;SDS011;4511;50.890;8.054;2023-03-05T14:09:26;8.43;;;7.50;;
8952;SDS011;4511;50.890;8.054;2023-03-05T14:11:55;9.90;;;7.87;;
8952;SDS011;4511;50.890;8.054;2023-03-05T14:14:24;10.13;;;8.50;;
8952;SDS011;4511;50.890;8.054;2023-03-05T14:16:53;11.87;;;8.40;;
8952;SDS011;4511;50.890;8.054;2023-03-05T14:19:30;9.53;;;8.37;;
8952;SDS011;4511;50.890;8.054;2023-03-05T14:21:59;10.53;;;8.87;;
8952;SDS011;4511;50.890;8.054;2023-03-05T14:24:27;9.80;;;8.47;;
8952;SDS011;4511;50.890;8.054;2023-03-05T14:26:56;9.80;;;8.60;;
8952;SDS011;4511;50.890;8.054;2023-03-05T14:29:25;10.87;;;9.73;;
8952;SDS011;4511;50.890;8.054;2023-03-05T14:31:55;10.33;;;9.33;;
8952;SDS011;4511;50.890;8.054;2023-03-05T14:34:25;9.37;;;8.43;;
8952;SDS011;4511;50.890;8.054;2023-03-05T14:36:55;10.27;;;9.00;;
8952;SDS011;4511;50.890;8.054;2023-03-05T14:39:27;10.27;;;8.90;;
8952;SDS011;4511;50.890;8.054;2023-03-05T14:44:40;14.07;;;9.70;;
8952;SDS011;4511;50.890;8.054;2023-03-05T14:47:08;10.53;;;9.23;;
8952;SDS011;4511;50.890;8.054;2023-03-05T14:49:35;9.97;;;8.97;;
8952;SDS011;4511;50.890;8.054;2023-03-05T14:52:02;11.83;;;9.40;;
8952;SDS011;4511;50.890;8.054;2023-03-05T14:54:31;13.70;;;10.20;;
8952;SDS011;4511;50.890;8.054;2023-03-05T14:57:02;12.70;;;10.67;;
8952;SDS011;4511;50.890;8.054;2023-03-05T14:59:30;11.37;;;10.10;;
8952;SDS011;4511;50.890;8.054;2023-03-05T15:01:57;11.60;;;10.10;;
8952;SDS011;4511;50.890;8.054;2023-03-05T15:04:25;10.80;;;9.70;;
8952;SDS011;4511;50.890;8.054;2023-03-05T15:06:52;11.10;;;9.90;;
8952;SDS011;4511;50.890;8.054;2023-03-05T15:09:18;10.60;;;9.50;;
8952;SDS011;4511;50.890;8.054;2023-03-05T15:11:45;11.37;;;9.20;;
8952;SDS011;4511;50.890;8.054;2023-03-05T15:14:12;10.53;;;9.20;;
8952;SDS011;4511;50.890;8.054;2023-03-05T15:16:40;12.03;;;9.37;;
8952;SDS011;4511;50.890;8.054;2023-03-05T15:19:10;10.50;;;9.40;;
8952;SDS011;4511;50.890;8.054;2023-03-05T15:21:39;9.87;;;8.97;;
8952;SDS011;4511;50.890;8.054;2023-03-05T15:24:06;11.43;;;9.83;;
8952;SDS011;4511;50.890;8.054;2023-03-05T15:26:33;10.97;;;9.83;;
8952;SDS011;4511;50.890;8.054;2023-03-05T15:29:01;13.37;;;10.13;;
8952;SDS011;4511;50.890;8.054;2023-03-05T15:31:27;11.33;;;9.70;;
8952;SDS011;4511;50.890;8.054;2023-03-05T15:33:59;10.40;;;9.40;;
8952;SDS011;4511;50.890;8.054;2023-03-05T15:36:25;11.10;;;9.47;;
8952;SDS011;4511;50.890;8.054;2023-03-05T15:38:53;10.57;;;9.40;;
8952;SDS011;4511;50.890;8.054;2023-03-05T15:41:20;11.17;;;9.70;;